x

South Bass Island, Oh (sbio1) Weather Station

4:00am - Mon 21st Aug 2017 All times are CDT. -5 hours from GMT.

  • Wind
    9mph, 13mph gusts
  • Air Temp 74°f
  • Sea Pressure 1018.2mb
  • South Bass Island, Oh
  • South Bass Island, Oh

More Historic Weather Station data

Upgrade to MSW Pro to gain access to the past 30 days of data for over 8000 Wavebouys and Weather Stations around the globe.

Join

Comparision Forecast

View Surf forecast
   
Mon 08/21 4:00am 9 13 mph 1018.2mb 74f
3:00am 10 11 mph 1018.3mb 74f
2:00am 7 9 mph 1018.3mb 75f
1:00am 8 10 mph 1018.4mb 75f
12:00am 9 10 mph 1018mb 75f
Sun 08/20 11:00pm 8 10 mph 1018.1mb 75f
10:00pm 11 13 mph 1018.2mb 74f
9:00pm 5 7 mph 1018.3mb 76f
8:00pm 7 9 mph 1018mb 76f
7:00pm 6 9 mph 1017.6mb 76f
6:00pm 7 9 mph 1017.2mb 78f
5:00pm 6 9 mph 1017.4mb 79f
4:00pm 8 11 mph 1017.4mb 79f
3:00pm 7 9 mph 1017.7mb 79f
2:00pm 6 8 mph 1018.5mb 79f
1:00pm 2 3 mph 1018.8mb 79f
12:00pm 6 7 mph 1019.5mb 77f
11:00am 6 6 mph 1019.1mb 75f
10:00am 6 8 mph 1018.9mb 73f
9:00am 6 8 mph 1019.1mb 72f
8:00am 7 11 mph 1018.9mb 71f
7:00am 3 6 mph 1018.3mb 71f
6:00am 8 11 mph 1017.6mb 69f
5:00am 6 8 mph 1017.5mb 70f
4:00am 6 8 mph 1017.3mb 71f
3:00am 6 9 mph 1016.7mb 71f
2:00am 5 8 mph 1016.4mb 72f
1:00am 6 7 mph 1016.3mb 73f
12:00am 3 6 mph 1016.2mb 74f
Sat 08/19 11:00pm 1 2 mph 1015.8mb 74f
10:00pm 2 2 mph 1015.2mb 74f
9:00pm 5 6 mph 1014.6mb 74f
8:00pm 6 6 mph 1014mb 74f
7:00pm 3 5 mph 1013.6mb 75f
6:00pm 8 9 mph 1013.2mb 77f
5:00pm 11 13 mph 1012.9mb 78f
4:00pm 10 11 mph 1012.8mb 77f
3:00pm 14 15 mph 1012.5mb 77f
2:00pm 10 11 mph 1012.8mb 75f
1:00pm 10 10 mph 1013mb 74f
12:00pm 7 8 mph 1013.1mb 72f
11:00am 8 11 mph 1013.1mb 71f
10:00am 5 6 mph 1012.7mb 69f
9:00am 8 9 mph 1012.6mb 68f
8:00am 8 9 mph 1012.4mb 68f
7:00am 9 13 mph 1011.8mb 67f
6:00am 16 21 mph 1011.9mb 66f
5:00am 8 10 mph 1011mb 72f
4:00am 7 8 mph 1010.9mb 72f
3:00am 7 8 mph 1011.3mb 72f
2:00am 9 10 mph 1011.8mb 72f
1:00am 13 14 mph 1011.9mb 72f
12:00am 14 15 mph 1011.8mb 73f
Fri 08/18 11:00pm 16 17 mph 1011.5mb 73f
10:00pm 22 23 mph 1010.8mb 74f
9:00pm 21 23 mph 1010.6mb 75f
8:00pm 18 21 mph 1010mb 76f
7:00pm 22 23 mph 1009.6mb 76f
6:00pm 22 25 mph 1009.3mb 77f
5:00pm 22 24 mph 1009.2mb 77f
4:00pm 20 23 mph 1009.3mb 77f
3:00pm 21 24 mph 1009.1mb 76f
2:00pm 25 29 mph 1009.2mb 76f
1:00pm 24 26 mph 1009mb 75f
12:00pm 22 23 mph 1008.9mb 75f
11:00am 21 22 mph 1008.6mb 75f
10:00am 22 24 mph 1008.3mb 74f
9:00am 20 22 mph 1008.4mb 73f
8:00am 21 22 mph 1008.2mb 72f
7:00am 20 21 mph 1007.9mb 72f
6:00am 18 21 mph 1007.8mb 72f
5:00am 21 24 mph 1007.4mb 73f
4:00am 21 23 mph 1006.9mb 74f
3:00am 17 21 mph 1006.7mb 74f
2:00am 17 20 mph 1006.7mb 74f
1:00am 20 21 mph 1007.2mb 75f
12:00am 20 22 mph 1007.6mb 76f
Thu 08/17 11:00pm 17 20 mph 1007.8mb 77f
10:00pm 20 22 mph 1007.8mb 77f
9:00pm 20 22 mph 1007.7mb 79f
8:00pm 17 20 mph 1006.8mb 79f
7:00pm 20 22 mph 1006.5mb 80f
6:00pm 17 20 mph 1006.7mb 80f
5:00pm 16 22 mph 1007.4mb 80f
4:00pm 18 20 mph 1007.6mb 78f
3:00pm 14 17 mph 1008.8mb 74f
2:00pm 6 9 mph 1008.6mb 76f
1:00pm 17 18 mph 1009.2mb 81f
12:00pm 16 20 mph 1009.7mb 80f
11:00am 15 16 mph 1010.5mb 78f